Weather History for KTIP - October, 2012

Change the Weather History Date:

Friday, October 26, 2012

  Actual Average (KCMI) Record (KCMI)
Temperature  
Mean Temperature 44 °F 50 °F  
Max Temperature 50 °F 61 °F 80 °F (2000)
Min Temperature 39 °F 39 °F 30 °F (1999)
Degree Days  
Heating Degree Days 20 15  
Month to date heating degree days 289  
Since 1 July heating degree days 381  
Cooling Degree Days 0 0  
Month to date cooling degree days 14  
Year to date cooling degree days 939  
Moisture  
Dew Point 35 °F    
Average Humidity 71    
Maximum Humidity 90    
Minimum Humidity 52    
Precipitation  
Precipitation 0.00 in 0.10 in 0.79 in (1997)
Month to date precipitation 2.66  
Year to date precipitation 33.22  
Sea Level Pressure  
Sea Level Pressure 30.25 in    
Wind  
Wind Speed 13 mph (NNW)    
Max Wind Speed 20 mph    
Max Gust Speed 29 mph    
Visibility 10 miles    
Events Rain    
T = Trace of Precipitation, MM = Missing Value Source: NWS Daily Summary

Daily Weather History Graph

Daily Weather History Graph

Search for Another Location

Airport or City:

Trip Planner

Search our weather history database for the weather conditions in past years. The results will help you decide how hot, cold, wet, or windy it might be!

Date:

Astronomy

Oct. 26, 2012 Rise Set
Actual Time 7:15 AM CDT 5:56 PM CDT
Civil Twilight 6:47 AM CDT 6:24 PM CDT
Nautical Twilight 6:16 AM CDT 6:56 PM CDT
Astronomical Twilight 5:44 AM CDT 7:27 PM CDT
Moon 4:12 PM CDT (10/26) 4:11 AM CDT (10/26)
Length of Visible Light 11h 36m
Length of Day
10h 40m
Waxing Gibbous, 91% of the Moon is Illuminated
Oct 26
Waxing Gibbous
Oct 29
Full
Nov 6
Last Quarter
Nov 13
New
Nov 20
First Quarter

Hourly Weather History & Observations

Time (CDT) Temp. Windchill Dew Point Humidity Pressure Visibility Wind Dir Wind Speed Gust Speed Precip Events Conditions
12:15 AM 45.7 °F 40.2 °F 43.0 °F 90% 30.11 in 10.0 mi NW 11.5 mph - 0.01 in Rain Light Rain
12:35 AM 45.9 °F 39.4 °F 42.8 °F 89% 30.10 in 10.0 mi NW 15.0 mph 20.7 mph 0.01 in Rain Rain
12:55 AM 46.4 °F 40.1 °F 42.8 °F 87% 30.11 in 10.0 mi NW 15.0 mph 20.7 mph N/A Rain Light Rain
1:15 AM 45.9 °F 38.3 °F 42.3 °F 87% 30.12 in 10.0 mi NW 19.6 mph 28.8 mph N/A   Mostly Cloudy
1:35 AM 44.6 °F 37.2 °F 41.2 °F 88% 30.14 in 10.0 mi NW 17.3 mph 24.2 mph N/A   Mostly Cloudy
1:55 AM 44.2 °F 38.0 °F 41.2 °F 89% 30.15 in 10.0 mi NW 12.7 mph 23.0 mph N/A   Mostly Cloudy
2:15 AM 44.6 °F 37.8 °F 41.0 °F 87% 30.16 in 10.0 mi NW 15.0 mph 20.7 mph N/A   Scattered Clouds
2:35 AM 43.9 °F 36.8 °F 40.3 °F 87% 30.16 in 10.0 mi NW 15.0 mph 20.7 mph N/A   Scattered Clouds
2:55 AM 43.7 °F 36.6 °F 38.1 °F 81% 30.18 in 10.0 mi NNW 15.0 mph 28.8 mph N/A   Mostly Cloudy
3:15 AM 42.8 °F 34.5 °F 36.9 °F 80% 30.17 in 10.0 mi NNW 18.4 mph 26.5 mph N/A   Mostly Cloudy
3:35 AM 42.8 °F 35.1 °F 37.4 °F 81% 30.18 in 10.0 mi NW 16.1 mph 25.3 mph N/A   Mostly Cloudy
3:55 AM 42.3 °F 35.5 °F 36.3 °F 79% 30.21 in 10.0 mi NNW 12.7 mph 20.7 mph N/A   Mostly Cloudy
4:15 AM 42.1 °F 34.9 °F 36.3 °F 80% 30.22 in 10.0 mi NW 13.8 mph 18.4 mph N/A   Overcast
4:35 AM 42.1 °F 35.2 °F 36.5 °F 81% 30.22 in 10.0 mi NW 12.7 mph - N/A   Overcast
4:55 AM 41.9 °F 35.4 °F 36.7 °F 82% 30.22 in 10.0 mi NNW 11.5 mph 17.3 mph N/A   Mostly Cloudy
5:15 AM 41.7 °F 35.2 °F 36.1 °F 81% 30.22 in 10.0 mi NNW 11.5 mph 20.7 mph N/A   Mostly Cloudy
5:35 AM 41.5 °F 34.2 °F 36.1 °F 81% 30.22 in 10.0 mi NNW 13.8 mph 21.9 mph N/A   Mostly Cloudy
5:55 AM 41.5 °F 33.5 °F 35.6 °F 79% 30.22 in 10.0 mi NNW 16.1 mph 21.9 mph N/A   Mostly Cloudy
6:15 AM 41.5 °F 35.0 °F 36.0 °F 81% 30.22 in 10.0 mi NNW 11.5 mph 17.3 mph N/A   Mostly Cloudy
6:35 AM 41.5 °F 34.2 °F 36.1 °F 81% 30.23 in 10.0 mi North 13.8 mph 19.6 mph N/A   Mostly Cloudy
6:55 AM 40.5 °F 33.2 °F 35.6 °F 83% 30.24 in 10.0 mi NNW 12.7 mph 17.3 mph N/A   Scattered Clouds
7:15 AM 39.6 °F 33.0 °F 35.6 °F 86% 30.25 in 10.0 mi NNW 10.4 mph - N/A   Clear
7:35 AM 39.2 °F 32.5 °F 35.6 °F 87% 30.26 in 10.0 mi NNW 10.4 mph - N/A   Clear
7:55 AM 39.7 °F 32.7 °F 34.7 °F 82% 30.27 in 7.0 mi North 11.5 mph - N/A   Clear
8:15 AM 41.0 °F 35.2 °F 35.6 °F 81% 30.28 in 10.0 mi NNW 9.2 mph 16.1 mph N/A   Clear
8:35 AM 41.0 °F 33.9 °F 35.6 °F 81% 30.29 in 10.0 mi North 12.7 mph 16.1 mph N/A   Clear
8:55 AM 42.1 °F 34.9 °F 35.1 °F 76% 30.30 in 10.0 mi North 13.8 mph 18.4 mph N/A   Clear
9:15 AM 42.3 °F 35.1 °F 33.6 °F 71% 30.30 in 10.0 mi NNW 13.8 mph 21.9 mph N/A   Clear
9:35 AM 43.0 °F 36.0 °F 33.4 °F 69% 30.31 in 10.0 mi North 13.8 mph - N/A   Clear
9:55 AM 42.8 °F 36.2 °F 33.6 °F 70% 30.32 in 10.0 mi North 12.7 mph 18.4 mph N/A   Scattered Clouds
10:15 AM 42.8 °F 35.8 °F 32.9 °F 68% 30.31 in 10.0 mi North 13.8 mph - N/A   Clear
10:35 AM 43.2 °F 35.6 °F 32.7 °F 67% 30.31 in 10.0 mi North 16.1 mph 20.7 mph N/A   Clear
10:55 AM 43.2 °F 36.2 °F 32.9 °F 67% 30.32 in 10.0 mi North 13.8 mph 24.2 mph N/A   Clear
11:15 AM 43.5 °F 36.4 °F 33.4 °F 68% 30.31 in 10.0 mi North 15.0 mph - N/A   Clear
11:35 AM 43.9 °F 37.5 °F 34.2 °F 69% 30.31 in 10.0 mi North 12.7 mph 20.7 mph N/A   Scattered Clouds
11:55 AM 44.1 °F 36.8 °F 32.2 °F 63% 30.31 in 10.0 mi North 16.1 mph 21.9 mph N/A   Scattered Clouds
12:15 PM 45.5 °F 39.2 °F 31.6 °F 58% 30.32 in 10.0 mi North 13.8 mph - N/A   Clear
12:35 PM 45.7 °F 38.8 °F 30.4 °F 55% 30.31 in 10.0 mi North 16.1 mph 20.7 mph N/A   Clear
12:55 PM 46.0 °F 39.9 °F 30.6 °F 55% 30.31 in 10.0 mi North 13.8 mph 21.9 mph N/A   Clear
1:15 PM 47.1 °F - 30.9 °F 53% 30.29 in 10.0 mi NNE 15.0 mph 23.0 mph N/A   Clear
1:35 PM 47.8 °F - 31.1 °F 52% 30.29 in 10.0 mi North 15.0 mph 20.7 mph N/A   Clear
1:55 PM 48.0 °F - 31.6 °F 53% 30.28 in 10.0 mi North 16.1 mph 20.7 mph N/A   Clear
2:15 PM 48.4 °F - 32.0 °F 53% 30.27 in 10.0 mi North 13.8 mph 19.6 mph N/A   Clear
2:35 PM 48.4 °F - 32.9 °F 55% 30.28 in 10.0 mi NNE 11.5 mph 18.4 mph N/A   Clear
2:55 PM 48.7 °F - 33.3 °F 55% 30.28 in 10.0 mi North 11.5 mph 16.1 mph N/A   Clear
3:15 PM 49.5 °F - 33.3 °F 54% 30.27 in 10.0 mi North 12.7 mph - N/A   Clear
3:35 PM 49.8 °F - 34.2 °F 55% 30.27 in 10.0 mi North 10.4 mph - N/A   Clear
3:55 PM 49.5 °F - 33.4 °F 54% 30.27 in 10.0 mi North 12.7 mph 16.1 mph N/A   Clear
4:15 PM 49.8 °F - 32.9 °F 52% 30.26 in 10.0 mi NNW 12.7 mph - N/A   Clear
4:35 PM 50.0 °F - 32.7 °F 52% 30.26 in 10.0 mi North 10.4 mph 17.3 mph N/A   Clear
4:55 PM 49.1 °F - 32.0 °F 52% 30.26 in 10.0 mi North 11.5 mph - N/A   Clear
5:15 PM 48.4 °F - 32.0 °F 53% 30.26 in 10.0 mi North 10.4 mph - N/A   Clear
5:35 PM 47.7 °F - 32.2 °F 55% 30.26 in 10.0 mi North 9.2 mph - N/A   Clear
5:55 PM 47.1 °F - 32.9 °F 58% 30.26 in 10.0 mi NNW 8.1 mph - N/A   Clear
6:15 PM 46.4 °F 42.4 °F 33.4 °F 61% 30.26 in 10.0 mi NNW 8.1 mph - N/A   Clear
6:35 PM 45.9 °F 41.2 °F 34.7 °F 65% 30.26 in 10.0 mi NW 9.2 mph - N/A   Clear
6:55 PM 45.9 °F 40.4 °F 34.2 °F 64% 30.26 in 10.0 mi NNW 11.5 mph - N/A   Clear
7:15 PM 45.5 °F 40.8 °F 34.2 °F 65% 30.26 in 10.0 mi NNW 9.2 mph - N/A   Clear
7:35 PM 45.0 °F 39.7 °F 33.8 °F 65% 30.26 in 10.0 mi NNW 10.4 mph - N/A   Clear
7:55 PM 44.8 °F 39.4 °F 34.0 °F 66% 30.27 in 10.0 mi NNW 10.4 mph - N/A   Clear
8:15 PM 44.6 °F 40.2 °F 34.0 °F 66% 30.28 in 10.0 mi North 8.1 mph - N/A   Clear
8:35 PM 43.0 °F 38.8 °F 35.2 °F 74% 30.28 in 10.0 mi North 6.9 mph - N/A   Clear
8:55 PM 42.8 °F 38.6 °F 35.6 °F 76% 30.27 in 10.0 mi North 6.9 mph - N/A   Clear
9:15 PM 43.7 °F 38.6 °F 34.5 °F 70% 30.28 in 10.0 mi North 9.2 mph - N/A   Clear
9:35 PM 43.0 °F 38.8 °F 34.9 °F 73% 30.29 in 10.0 mi North 6.9 mph - N/A   Clear
9:55 PM 42.6 °F 38.4 °F 35.1 °F 75% 30.29 in 10.0 mi North 6.9 mph - N/A   Clear
10:15 PM 41.9 °F 38.2 °F 35.4 °F 78% 30.29 in 10.0 mi North 5.8 mph - N/A   Clear
10:35 PM 41.9 °F 37.5 °F 34.7 °F 76% 30.28 in 10.0 mi North 6.9 mph - N/A   Clear
10:55 PM 41.4 °F 38.4 °F 34.9 °F 78% 30.29 in 10.0 mi North 4.6 mph - N/A   Clear
11:15 PM 41.0 °F 37.1 °F 34.2 °F 77% 30.29 in 10.0 mi North 5.8 mph - N/A   Clear
11:35 PM 39.2 °F 35.0 °F 34.9 °F 84% 30.29 in 10.0 mi NW 5.8 mph - N/A   Clear
11:55 PM 39.4 °F 33.8 °F 35.1 °F 84% 30.29 in 10.0 mi NW 8.1 mph - N/A   Clear